createdAt,value
2022-08-27T00:00:30.474Z,18.90
2022-08-27T00:02:58.852Z,18.80
2022-08-27T00:05:25.993Z,18.80
2022-08-27T00:07:53.120Z,18.90
2022-08-27T00:10:25.138Z,18.90
2022-08-27T00:12:52.585Z,18.80
2022-08-27T00:15:20.211Z,18.80
2022-08-27T00:17:48.326Z,18.80
2022-08-27T00:20:17.242Z,18.80
2022-08-27T00:22:45.217Z,18.80
2022-08-27T00:25:13.004Z,18.70
2022-08-27T00:27:40.632Z,18.70
2022-08-27T00:30:09.652Z,18.80
2022-08-27T00:32:36.876Z,18.70
2022-08-27T00:35:04.241Z,18.70
2022-08-27T00:37:32.727Z,18.60
2022-08-27T00:40:00.359Z,18.60
2022-08-27T00:42:27.606Z,18.60
2022-08-27T00:45:00.000Z,18.60
2022-08-27T00:47:28.830Z,18.50
2022-08-27T00:50:03.061Z,18.50
2022-08-27T00:52:33.088Z,18.40
2022-08-27T00:55:12.310Z,18.40
2022-08-27T00:57:40.892Z,18.40
2022-08-27T01:00:10.507Z,18.40
2022-08-27T01:02:38.366Z,18.40
2022-08-27T01:05:07.957Z,18.40
2022-08-27T01:07:37.146Z,18.30
2022-08-27T01:10:07.467Z,18.30
2022-08-27T01:12:36.106Z,18.20
2022-08-27T01:15:07.365Z,18.20
2022-08-27T01:17:38.094Z,18.20
2022-08-27T01:20:09.579Z,18.20
2022-08-27T01:22:55.163Z,18.10
2022-08-27T01:25:23.818Z,18.10
2022-08-27T01:27:51.403Z,18.20
2022-08-27T01:30:19.890Z,18.10
2022-08-27T01:32:47.587Z,18.10
2022-08-27T01:35:15.467Z,18.00
2022-08-27T01:37:44.280Z,18.00
2022-08-27T01:40:13.404Z,18.00
2022-08-27T01:42:42.473Z,18.00
2022-08-27T01:45:17.319Z,18.00
2022-08-27T01:47:44.741Z,18.00
2022-08-27T01:50:13.944Z,18.00
2022-08-27T01:52:41.293Z,17.90
2022-08-27T01:55:10.399Z,17.80
2022-08-27T01:57:38.198Z,17.80
2022-08-27T02:00:09.714Z,17.80
2022-08-27T02:02:38.902Z,17.80
2022-08-27T02:05:06.562Z,17.70
2022-08-27T02:07:33.904Z,17.70
2022-08-27T02:10:01.066Z,17.70
2022-08-27T02:12:28.347Z,17.80
2022-08-27T02:14:55.462Z,17.70
2022-08-27T02:17:24.073Z,17.70
2022-08-27T02:19:51.385Z,17.70
2022-08-27T02:22:19.991Z,17.60
2022-08-27T02:24:47.132Z,17.60
2022-08-27T02:27:14.356Z,17.60
2022-08-27T02:29:41.545Z,17.50
2022-08-27T02:32:23.967Z,17.50
2022-08-27T02:34:56.660Z,17.50
2022-08-27T02:37:23.910Z,17.50
2022-08-27T02:39:51.036Z,17.40
2022-08-27T02:42:18.550Z,17.40
2022-08-27T02:44:46.019Z,17.40
2022-08-27T02:47:14.566Z,17.40
2022-08-27T02:49:41.794Z,17.50
2022-08-27T02:52:09.019Z,17.50
2022-08-27T02:54:36.402Z,17.50
2022-08-27T02:57:03.607Z,17.50
2022-08-27T02:59:30.937Z,17.60
2022-08-27T03:01:58.234Z,17.60
2022-08-27T03:04:25.484Z,17.50
2022-08-27T03:06:52.675Z,17.50
2022-08-27T03:09:20.069Z,17.50
2022-08-27T03:11:47.267Z,17.50
2022-08-27T03:14:14.598Z,17.50
2022-08-27T03:16:44.125Z,17.50
2022-08-27T03:19:11.461Z,17.50
2022-08-27T03:21:38.646Z,17.50
2022-08-27T03:24:11.339Z,17.40
2022-08-27T03:26:39.726Z,17.30
2022-08-27T03:29:08.119Z,17.20
2022-08-27T03:31:35.305Z,17.30
2022-08-27T03:34:04.013Z,17.20
2022-08-27T03:36:31.724Z,17.30
2022-08-27T03:38:58.882Z,17.30
2022-08-27T03:41:45.490Z,17.20
2022-08-27T03:44:21.381Z,17.10
2022-08-27T03:46:50.375Z,17.20
2022-08-27T03:49:20.623Z,17.20
2022-08-27T03:51:49.277Z,17.20
2022-08-27T03:54:17.884Z,17.30
2022-08-27T03:56:45.416Z,17.40
2022-08-27T03:59:12.646Z,17.40
2022-08-27T04:01:39.854Z,17.50
2022-08-27T04:04:07.078Z,17.60
2022-08-27T04:06:35.805Z,17.70
2022-08-27T04:09:03.147Z,17.70
2022-08-27T04:11:30.354Z,17.80
2022-08-27T04:13:57.486Z,17.80
2022-08-27T04:16:28.002Z,17.80
2022-08-27T04:18:55.646Z,17.90
2022-08-27T04:21:25.906Z,17.90
2022-08-27T04:23:53.037Z,17.60
2022-08-27T04:26:20.668Z,17.90
2022-08-27T04:28:48.947Z,17.90
2022-08-27T04:31:17.236Z,17.90
2022-08-27T04:33:50.892Z,17.90
2022-08-27T04:36:19.221Z,17.90
2022-08-27T04:38:46.954Z,17.90
2022-08-27T04:41:20.182Z,17.90
2022-08-27T04:43:51.443Z,17.90
2022-08-27T04:46:22.465Z,17.90
2022-08-27T04:48:49.993Z,17.90
2022-08-27T04:51:17.432Z,17.60
2022-08-27T04:53:45.888Z,18.00
2022-08-27T04:56:14.567Z,18.00
2022-08-27T04:58:42.006Z,18.00
2022-08-27T05:01:09.562Z,17.70
2022-08-27T05:03:36.758Z,18.10
2022-08-27T05:06:05.144Z,18.10
2022-08-27T05:08:32.693Z,18.20
2022-08-27T05:11:00.762Z,18.20
2022-08-27T05:13:28.347Z,18.20
2022-08-27T05:16:02.995Z,18.20
2022-08-27T05:18:33.313Z,18.30
2022-08-27T05:21:03.925Z,18.30
2022-08-27T05:23:31.110Z,18.30
2022-08-27T05:26:02.991Z,18.40
2022-08-27T05:28:30.120Z,18.50
2022-08-27T05:31:03.809Z,18.50
2022-08-27T05:33:31.303Z,18.50
2022-08-27T05:35:59.308Z,18.50
2022-08-27T05:38:27.647Z,18.50
2022-08-27T05:41:05.679Z,18.60
2022-08-27T05:43:33.496Z,18.70
2022-08-27T05:46:04.673Z,18.70
2022-08-27T05:48:32.024Z,18.80
2022-08-27T05:50:59.154Z,18.80
2022-08-27T05:53:26.734Z,18.80
2022-08-27T05:55:54.187Z,18.80
2022-08-27T05:58:40.127Z,18.90
2022-08-27T06:01:10.327Z,19.00
2022-08-27T06:03:38.271Z,19.00
2022-08-27T06:06:07.525Z,19.10
2022-08-27T06:08:35.122Z,19.10
2022-08-27T06:11:03.052Z,19.20
2022-08-27T06:13:30.577Z,19.20
2022-08-27T06:16:06.649Z,19.20
2022-08-27T06:18:34.808Z,19.30
2022-08-27T06:21:02.353Z,19.10
2022-08-27T06:23:29.494Z,19.30
2022-08-27T06:25:57.207Z,19.30
2022-08-27T06:28:25.235Z,19.40
2022-08-27T06:30:52.612Z,19.40
2022-08-27T06:33:21.440Z,19.40
2022-08-27T06:35:48.661Z,19.50
2022-08-27T06:38:15.975Z,19.50
2022-08-27T06:40:43.233Z,19.50
2022-08-27T06:43:10.538Z,19.60
2022-08-27T06:45:38.444Z,19.70
2022-08-27T06:48:05.699Z,19.70
2022-08-27T06:50:37.241Z,19.80
2022-08-27T06:53:04.730Z,19.80
2022-08-27T06:55:36.745Z,19.90
2022-08-27T06:58:05.136Z,19.90
2022-08-27T07:00:32.555Z,20.00
2022-08-27T07:02:59.757Z,20.00
2022-08-27T07:05:26.995Z,20.10
2022-08-27T07:07:54.831Z,20.10
2022-08-27T07:10:22.104Z,20.10
2022-08-27T07:12:49.283Z,20.20
2022-08-27T07:15:16.621Z,20.30
2022-08-27T07:17:46.909Z,20.20
2022-08-27T07:20:15.081Z,20.30
2022-08-27T07:22:43.691Z,20.40
2022-08-27T07:25:12.870Z,20.40
2022-08-27T07:27:42.456Z,20.50
2022-08-27T07:30:12.406Z,20.60
2022-08-27T07:32:41.170Z,20.60
2022-08-27T07:35:09.798Z,20.60
2022-08-27T07:37:37.776Z,20.60
2022-08-27T07:40:06.795Z,20.60
2022-08-27T07:42:52.859Z,20.60
2022-08-27T07:45:20.277Z,20.80
2022-08-27T07:47:47.958Z,20.80
2022-08-27T07:50:15.658Z,20.80
2022-08-27T07:52:44.420Z,20.80
2022-08-27T07:55:12.634Z,20.90
2022-08-27T07:57:40.724Z,21.10
2022-08-27T08:00:12.274Z,21.30
2022-08-27T08:02:45.242Z,21.40
2022-08-27T08:05:13.331Z,21.70
2022-08-27T08:07:41.136Z,21.50
2022-08-27T08:10:09.714Z,21.50
2022-08-27T08:12:38.443Z,21.50
2022-08-27T08:15:08.653Z,21.50
2022-08-27T08:17:36.889Z,21.60
2022-08-27T08:20:21.754Z,21.80
2022-08-27T08:22:51.613Z,21.80
2022-08-27T08:25:26.178Z,21.90
2022-08-27T08:27:53.534Z,22.00
2022-08-27T08:30:20.684Z,22.00
2022-08-27T08:32:47.974Z,22.00
2022-08-27T08:35:15.407Z,22.10
2022-08-27T08:37:43.451Z,22.00
2022-08-27T08:40:11.307Z,22.10
2022-08-27T08:42:50.596Z,21.80
2022-08-27T08:45:21.262Z,22.10
2022-08-27T08:47:53.225Z,22.10
2022-08-27T08:50:23.053Z,22.30
2022-08-27T08:52:50.212Z,22.40
2022-08-27T08:55:23.258Z,22.30
2022-08-27T08:58:05.195Z,22.30
2022-08-27T09:00:33.570Z,22.20
2022-08-27T09:03:02.368Z,21.90
2022-08-27T09:05:31.882Z,22.10
2022-08-27T09:08:15.358Z,22.20
2022-08-27T09:10:56.796Z,22.10
2022-08-27T09:13:28.617Z,21.90
2022-08-27T09:15:59.195Z,21.80
2022-08-27T09:18:30.537Z,22.10
2022-08-27T09:21:09.063Z,22.30
2022-08-27T09:23:40.307Z,22.40
2022-08-27T09:26:18.251Z,22.60
2022-08-27T09:29:05.011Z,22.40
2022-08-27T09:31:36.741Z,22.80
2022-08-27T09:34:06.872Z,22.70
2022-08-27T09:36:51.860Z,22.80
2022-08-27T09:39:28.074Z,22.40
2022-08-27T09:41:59.053Z,22.90
2022-08-27T09:44:31.408Z,23.00
2022-08-27T09:47:05.740Z,22.90
2022-08-27T09:49:52.871Z,22.00
2022-08-27T09:52:50.505Z,23.20
2022-08-27T09:55:34.396Z,23.10
2022-08-27T09:58:09.763Z,23.50
2022-08-27T10:00:38.796Z,24.10
2022-08-27T10:03:06.929Z,23.70
2022-08-27T10:05:43.747Z,23.60
2022-08-27T10:08:15.348Z,23.70
2022-08-27T10:10:51.806Z,23.50
2022-08-27T10:13:22.099Z,23.40
2022-08-27T10:15:52.072Z,23.50
2022-08-27T10:18:30.759Z,23.60
2022-08-27T10:21:09.313Z,23.50
2022-08-27T10:23:42.456Z,23.60
2022-08-27T10:26:20.099Z,23.50
2022-08-27T10:29:11.175Z,23.30
2022-08-27T10:31:56.395Z,23.30
2022-08-27T10:34:34.589Z,23.40
2022-08-27T10:37:12.829Z,23.60
2022-08-27T10:40:00.410Z,23.80
2022-08-27T10:42:57.528Z,23.90
2022-08-27T10:45:42.817Z,23.80
2022-08-27T10:48:19.789Z,23.80
2022-08-27T10:51:04.686Z,23.50
2022-08-27T10:53:38.065Z,23.70
2022-08-27T10:56:25.614Z,23.70
2022-08-27T10:59:01.855Z,23.70
2022-08-27T11:01:42.548Z,23.80
2022-08-27T11:04:21.777Z,23.90
2022-08-27T11:07:00.187Z,24.30
2022-08-27T11:09:36.358Z,24.20
2022-08-27T11:12:15.149Z,24.10
2022-08-27T11:14:46.444Z,24.00
2022-08-27T11:17:17.958Z,23.90
2022-08-27T11:19:51.105Z,24.00
2022-08-27T11:22:47.842Z,23.90
2022-08-27T11:25:27.187Z,23.80
2022-08-27T11:27:55.354Z,23.80
2022-08-27T11:30:40.791Z,23.70
2022-08-27T11:33:14.718Z,23.60
2022-08-27T11:35:57.919Z,23.70
2022-08-27T11:38:28.549Z,23.70
2022-08-27T11:40:55.973Z,23.80
2022-08-27T11:43:25.321Z,23.70
2022-08-27T11:45:57.860Z,24.00
2022-08-27T11:48:28.717Z,24.00
2022-08-27T11:51:04.135Z,24.10
2022-08-27T11:53:52.341Z,24.20
2022-08-27T11:56:26.118Z,24.10
2022-08-27T11:58:53.774Z,24.20
2022-08-27T12:01:28.255Z,24.30
2022-08-27T12:04:03.584Z,24.20
2022-08-27T12:06:40.374Z,24.20
2022-08-27T12:09:14.775Z,24.20
2022-08-27T12:11:46.304Z,24.40
2022-08-27T12:14:35.458Z,24.20
2022-08-27T12:17:09.119Z,24.20
2022-08-27T12:19:43.354Z,24.20
2022-08-27T12:22:23.596Z,24.20
2022-08-27T12:24:56.109Z,24.20
2022-08-27T12:27:51.428Z,24.20
2022-08-27T12:30:21.345Z,24.40
2022-08-27T12:32:55.774Z,24.30
2022-08-27T12:35:37.888Z,24.30
2022-08-27T12:38:20.809Z,24.20
2022-08-27T12:40:52.983Z,24.30
2022-08-27T12:43:34.854Z,24.30
2022-08-27T12:46:05.478Z,24.30
2022-08-27T12:48:58.826Z,24.40
2022-08-27T12:51:46.183Z,24.50
2022-08-27T12:54:30.458Z,24.70
2022-08-27T12:57:12.955Z,24.90
2022-08-27T12:59:50.540Z,24.70
2022-08-27T13:02:30.575Z,24.60
2022-08-27T13:05:10.537Z,24.40
2022-08-27T13:07:42.940Z,24.30
2022-08-27T13:10:26.902Z,24.20
2022-08-27T13:13:05.936Z,24.20
2022-08-27T13:15:36.601Z,24.10
2022-08-27T13:18:04.940Z,24.10
2022-08-27T13:20:32.867Z,24.10
2022-08-27T13:23:03.403Z,24.10
2022-08-27T13:25:34.939Z,24.10
2022-08-27T13:28:15.352Z,24.10
2022-08-27T13:30:45.260Z,24.10
2022-08-27T13:33:22.109Z,24.10
2022-08-27T13:35:49.291Z,24.00
2022-08-27T13:38:21.687Z,24.20
2022-08-27T13:41:00.410Z,24.10
2022-08-27T13:43:38.076Z,24.10
2022-08-27T13:46:26.578Z,24.10
2022-08-27T13:48:56.836Z,24.00
2022-08-27T13:51:25.700Z,24.00
2022-08-27T13:56:06.917Z,24.30
2022-08-27T13:59:59.088Z,24.40
2022-08-27T14:30:29.527Z,23.80
2022-08-27T14:40:07.015Z,23.80
2022-08-27T14:43:26.043Z,23.60
2022-08-27T14:49:50.063Z,23.60
2022-08-27T14:55:46.825Z,23.50
2022-08-27T14:58:30.252Z,23.50
2022-08-27T15:05:12.066Z,23.50
2022-08-27T15:15:33.679Z,23.60
2022-08-27T15:18:27.098Z,23.30
2022-08-27T15:32:12.159Z,23.70
2022-08-27T15:35:29.238Z,23.70
2022-08-27T15:37:58.459Z,23.70
2022-08-27T15:40:28.544Z,23.80
2022-08-27T15:43:04.435Z,23.80
2022-08-27T15:45:32.776Z,23.80
2022-08-27T15:48:01.530Z,23.80
2022-08-27T15:50:30.487Z,23.90
2022-08-27T15:53:01.822Z,23.90
2022-08-27T15:55:32.265Z,23.80
2022-08-27T15:58:00.161Z,23.80
2022-08-27T16:00:28.767Z,23.80
2022-08-27T16:02:57.379Z,23.70
2022-08-27T16:05:25.845Z,23.70
2022-08-27T16:07:52.914Z,23.70
2022-08-27T16:10:20.133Z,23.70
2022-08-27T16:12:47.376Z,23.80
2022-08-27T16:15:15.084Z,23.70
2022-08-27T16:17:42.743Z,23.70
2022-08-27T16:20:12.284Z,23.60
2022-08-27T16:22:39.546Z,23.60
2022-08-27T16:25:07.847Z,23.60
2022-08-27T16:27:36.112Z,23.60
2022-08-27T16:30:04.034Z,23.60
2022-08-27T16:32:31.867Z,23.50
2022-08-27T16:34:59.445Z,23.50
2022-08-27T16:37:27.019Z,23.50
2022-08-27T16:39:54.138Z,23.50
2022-08-27T16:42:21.877Z,23.50
2022-08-27T16:44:49.357Z,23.50
2022-08-27T16:47:16.702Z,23.40
2022-08-27T16:50:02.493Z,23.40
2022-08-27T16:52:30.249Z,23.40
2022-08-27T16:54:57.330Z,23.40
2022-08-27T16:57:24.583Z,23.30
2022-08-27T16:59:51.758Z,23.30
2022-08-27T17:02:30.075Z,23.20
2022-08-27T17:05:17.334Z,23.20
2022-08-27T17:07:48.886Z,23.20
2022-08-27T17:10:19.677Z,23.10
2022-08-27T17:12:48.147Z,23.10
2022-08-27T17:15:16.814Z,23.00
2022-08-27T17:17:44.587Z,23.00
2022-08-27T17:20:12.086Z,22.90
2022-08-27T17:22:39.271Z,22.90
2022-08-27T17:25:07.303Z,22.90
2022-08-27T17:27:34.877Z,22.80
2022-08-27T17:30:02.191Z,22.80
2022-08-27T17:32:32.634Z,22.70
2022-08-27T17:35:05.153Z,22.70
2022-08-27T17:37:34.014Z,22.60
2022-08-27T17:40:02.496Z,22.60
2022-08-27T17:42:31.267Z,22.50
2022-08-27T17:45:00.242Z,22.50
2022-08-27T17:47:27.986Z,22.40
2022-08-27T17:50:06.168Z,22.40
2022-08-27T17:52:34.343Z,22.30
2022-08-27T17:55:01.505Z,22.30
2022-08-27T17:57:54.810Z,22.20
2022-08-27T18:00:22.030Z,22.20
2022-08-27T18:02:51.253Z,22.20
2022-08-27T18:05:35.031Z,22.10
2022-08-27T18:08:04.123Z,22.00
2022-08-27T18:10:37.777Z,22.00
2022-08-27T18:13:05.680Z,22.00
2022-08-27T18:16:12.210Z,21.90
2022-08-27T18:18:41.194Z,21.90
2022-08-27T18:21:08.536Z,21.80
2022-08-27T18:23:37.518Z,21.80
2022-08-27T18:26:06.791Z,21.80
2022-08-27T18:28:34.788Z,21.70
2022-08-27T18:31:06.712Z,21.70
2022-08-27T18:33:38.365Z,21.70
2022-08-27T18:36:09.030Z,21.60
2022-08-27T18:39:26.486Z,21.60
2022-08-27T18:42:07.906Z,21.30
2022-08-27T18:47:46.172Z,21.60
2022-08-27T18:51:01.838Z,21.50
2022-08-27T18:53:34.784Z,21.50
2022-08-27T18:59:05.532Z,21.40
2022-08-27T19:01:54.203Z,21.30
2022-08-27T19:04:29.216Z,20.90
2022-08-27T19:07:24.219Z,21.30
2022-08-27T19:12:53.599Z,21.20
2022-08-27T19:15:34.855Z,21.30
2022-08-27T19:18:10.768Z,21.40
2022-08-27T19:20:43.701Z,21.10
2022-08-27T19:23:15.854Z,21.10
2022-08-27T19:25:54.306Z,21.10
2022-08-27T19:28:42.429Z,21.10
2022-08-27T19:31:41.585Z,21.00
2022-08-27T19:34:22.659Z,21.00
2022-08-27T19:37:00.777Z,21.00
2022-08-27T19:40:04.003Z,20.90
2022-08-27T19:42:32.597Z,20.90
2022-08-27T19:45:02.471Z,20.90
2022-08-27T19:47:54.298Z,21.60
2022-08-27T19:50:32.089Z,20.80
2022-08-27T19:53:41.449Z,20.70
2022-08-27T19:56:32.549Z,20.70
2022-08-27T19:59:16.188Z,20.70
2022-08-27T20:01:57.204Z,20.70
2022-08-27T20:04:47.606Z,21.00
2022-08-27T20:07:33.153Z,20.40
2022-08-27T20:10:09.394Z,20.50
2022-08-27T20:12:41.532Z,20.50
2022-08-27T20:15:15.945Z,20.50
2022-08-27T20:17:51.812Z,20.70
2022-08-27T20:20:28.717Z,20.50
2022-08-27T20:23:08.596Z,20.50
2022-08-27T20:25:47.287Z,20.50
2022-08-27T20:31:21.933Z,20.50
2022-08-27T20:33:57.522Z,20.40
2022-08-27T20:36:48.745Z,20.40
2022-08-27T20:40:11.453Z,20.60
2022-08-27T20:42:49.750Z,20.40
2022-08-27T20:45:17.985Z,20.50
2022-08-27T20:47:48.355Z,20.30
2022-08-27T20:50:19.960Z,20.50
2022-08-27T20:52:50.138Z,20.50
2022-08-27T20:55:20.934Z,20.30
2022-08-27T20:58:19.933Z,20.50
2022-08-27T21:00:53.913Z,20.40
2022-08-27T21:03:31.829Z,20.50
2022-08-27T21:06:06.865Z,20.50
2022-08-27T21:11:48.441Z,20.50
2022-08-27T21:14:32.282Z,20.50
2022-08-27T21:17:08.056Z,20.40
2022-08-27T21:19:43.435Z,20.50
2022-08-27T21:22:14.161Z,20.50
2022-08-27T21:25:27.277Z,20.40
2022-08-27T21:28:08.638Z,20.40
2022-08-27T21:33:53.324Z,20.40
2022-08-27T21:36:25.116Z,20.40
2022-08-27T21:39:17.516Z,19.80
2022-08-27T21:41:49.804Z,20.30
2022-08-27T21:44:50.006Z,20.30
2022-08-27T21:47:21.890Z,19.70
2022-08-27T21:50:10.164Z,20.20
2022-08-27T21:52:44.392Z,20.20
2022-08-27T21:58:13.633Z,19.60
2022-08-27T22:01:05.152Z,20.20
2022-08-27T22:03:42.206Z,20.60
2022-08-27T22:06:26.317Z,20.20
2022-08-27T22:09:00.962Z,20.20
2022-08-27T22:11:38.750Z,20.30
2022-08-27T22:14:11.891Z,20.20
2022-08-27T22:17:04.773Z,20.10
2022-08-27T22:20:00.422Z,20.10
2022-08-27T22:22:30.857Z,19.50
2022-08-27T22:25:05.768Z,20.00
2022-08-27T22:31:33.923Z,19.90
2022-08-27T22:42:48.271Z,19.90
2022-08-27T22:45:30.048Z,19.80
2022-08-27T22:48:23.276Z,19.90
2022-08-27T22:50:56.173Z,19.90
2022-08-27T22:56:37.319Z,20.00
2022-08-27T22:59:15.546Z,19.90
2022-08-27T23:01:59.841Z,19.90
2022-08-27T23:05:01.509Z,19.90
2022-08-27T23:11:02.344Z,19.70
2022-08-27T23:13:32.697Z,19.90
2022-08-27T23:16:17.173Z,19.90
2022-08-27T23:18:48.420Z,19.90
2022-08-27T23:21:20.235Z,19.80
2022-08-27T23:24:12.856Z,19.80
2022-08-27T23:27:40.988Z,19.80
2022-08-27T23:30:14.799Z,19.80
2022-08-27T23:32:57.202Z,19.80
2022-08-27T23:35:32.013Z,19.70
2022-08-27T23:38:06.496Z,20.10
2022-08-27T23:41:03.467Z,19.80
2022-08-27T23:43:48.284Z,19.70
2022-08-27T23:46:25.105Z,19.70
2022-08-27T23:48:56.500Z,19.80
2022-08-27T23:54:25.419Z,19.70
2022-08-27T23:57:21.860Z,19.70
